Latest Coastal Weather Observations for Rundle Island

IDQ60701

Issued at 6:51 am EST Tuesday 24 January 2017 (issued every 10 minutes, with the page automatically refreshed every 10 minutes)

About coastal observations | Map of coastal stations | Coastal observations for QLD | Marine services | Other Formats
Station Details ID: 039322 Name: RUNDLE ISLAND Lat: -23.53 Lon: 151.28 Height: 19.8 m
Data from the previous 72 hours. | See also: Recent months at Rundle Island
Date/Time
EST
Temp
°C
Wind Pressure Rain since
9am
mm
Weather Cloud Vis
km
Sea
Height
m
Swell
Dir  Spd
kts
Gust
kts
hPa Trend Height
m
Period
s
Dir
24/06:30am 26.3 S 11 14 1014.6 - - - - - - - - -
24/06:00am 26.4 SE 11 13 1014.5 - - - - - - - - -
24/05:30am 26.2 ESE 11 13 1014.3 - - - - - - - - -
24/05:00am 26.5 SE 10 12 1014.0 - - - - - - - - -
24/04:30am 26.3 SE 13 15 1013.7 - - - - - - - - -
24/04:00am 26.5 ESE 11 13 1013.6 - - - - - - - - -
24/03:30am 26.7 ESE 11 14 1013.4 - - - - - - - - -
24/03:00am 26.6 ESE 12 15 1013.6 - - - - - - - - -
24/02:30am 26.9 ESE 14 17 1013.5 - - - - - - - - -
24/02:00am 26.4 ESE 11 13 1013.9 - - - - - - - - -
24/01:30am 26.3 ESE 11 13 1013.8 - - - - - - - - -
24/01:00am 26.4 ESE 14 16 1013.8 - - - - - - - - -
24/12:30am 26.6 ESE 15 17 1013.9 - - - - - - - - -
24/12:00am 26.7 ESE 15 17 1014.3 - - - - - - - - -
 
Date/Time
EST
Temp
°C
Wind Pressure Rain since
9am
mm
Weather Cloud Vis
km
Sea
Height
m
Swell
Dir  Spd
kts
Gust
kts
hPa Trend Height
m
Period
s
Dir
23/11:30pm 26.8 ESE 15 18 1014.5 - - - - - - - - -
23/11:00pm 26.9 ESE 17 20 1014.6 - - - - - - - - -
23/10:30pm 26.7 ESE 18 20 1014.6 - - - - - - - - -
23/10:00pm 26.7 E 17 20 1014.3 - - - - - - - - -
23/09:30pm 26.7 E 17 19 1014.3 - - - - - - - - -
23/09:00pm 26.8 ESE 17 19 1014.4 - - - - - - - - -
23/08:30pm 26.8 ESE 17 19 1014.4 - - - - - - - - -
23/08:00pm 26.6 ESE 17 20 1014.0 - - - - - - - - -
23/07:30pm 26.7 ESE 15 19 1014.0 - - - - - - - - -
23/07:00pm 26.7 E 15 18 1013.5 - - - - - - - - -
23/06:30pm 26.8 E 14 16 1013.3 - - - - - - - - -
23/06:00pm 27.1 ESE 15 16 1012.8 - - - - - - - - -
23/05:30pm 27.2 E 15 17 1012.4 - - - - - - - - -
23/05:00pm 27.2 ESE 15 18 1012.2 - - - - - - - - -
23/04:30pm 27.3 ESE 16 18 1012.0 - - - - - - - - -
23/04:00pm 27.3 ESE 16 18 1011.9 - - - - - - - - -
23/03:30pm 27.3 ESE 16 18 1012.0 - - - - - - - - -
23/03:00pm 27.6 ESE 15 17 1012.3 - - - - - - - - -
23/02:30pm 27.5 ESE 15 17 1012.5 - - - - - - - - -
23/02:00pm 27.5 ESE 14 16 1012.7 - - - - - - - - -
23/01:30pm 27.5 ESE 14 17 1013.1 - - - - - - - - -
23/01:00pm 27.4 ESE 15 18 1013.3 - - - - - - - - -
23/12:30pm 27.1 SE 17 19 1013.5 - - - - - - - - -
23/12:00pm 27.6 ESE 17 19 1013.7 - - - - - - - - -
23/11:30am 27.2 ESE 16 19 1014.0 - - - - - - - - -
23/11:00am 26.1 SE 15 17 1014.5 - - - - - - - - -
23/10:30am 26.0 SE 14 17 1014.6 - - - - - - - - -
23/10:00am 25.9 SE 15 18 1014.7 - - - - - - - - -
23/09:30am 25.9 SE 16 19 1014.8 - - - - - - - - -
23/09:00am 26.3 SE 15 18 1014.8 - - - - - - - - -
23/08:30am 26.0 SE 16 18 1014.5 - - - - - - - - -
23/08:00am 26.1 SE 16 19 1014.5 - - - - - - - - -
23/07:30am 26.6 ESE 17 19 1014.1 - - - - - - - - -
23/07:00am 26.8 ESE 17 20 1013.7 - - - - - - - - -
23/06:30am 26.6 ESE 18 22 1013.4 - - - - - - - - -
23/06:00am 26.4 ESE 19 23 1013.0 - - - - - - - - -
23/05:30am 26.1 ESE 17 21 1012.7 - - - - - - - - -
23/05:00am 25.4 ESE 15 19 1012.4 - - - - - - - - -
23/04:30am 25.8 ESE 14 22 1012.1 - - - - - - - - -
23/04:00am 25.8 ESE 17 21 1011.9 - - - - - - - - -
23/03:30am 26.0 ESE 20 22 1011.8 - - - - - - - - -
23/03:00am 26.2 ESE 19 24 1011.6 - - - - - - - - -
23/02:30am 26.2 SE 19 24 1011.9 - - - - - - - - -
23/02:00am 26.5 ESE 18 21 1012.1 - - - - - - - - -
23/01:30am 26.6 ESE 19 23 1012.2 - - - - - - - - -
23/01:00am 26.6 ESE 20 23 1012.4 - - - - - - - - -
23/12:30am 26.6 ESE 20 23 1012.7 - - - - - - - - -
23/12:00am 26.6 ESE 21 24 1013.0 - - - - - - - - -
 
Date/Time
EST
Temp
°C
Wind Pressure Rain since
9am
mm
Weather Cloud Vis
km
Sea
Height
m
Swell
Dir  Spd
kts
Gust
kts
hPa Trend Height
m
Period
s
Dir
22/11:30pm 26.4 ESE 22 28 1013.1 - - - - - - - - -
22/11:00pm 26.7 ESE 23 25 1013.2 - - - - - - - - -
22/10:30pm 26.7 ESE 23 26 1013.4 - - - - - - - - -
22/10:00pm 26.8 ESE 22 26 1013.4 - - - - - - - - -
22/09:30pm 26.9 ESE 22 25 1013.2 - - - - - - - - -
22/09:00pm 27.0 ESE 21 23 1013.1 - - - - - - - - -
22/08:30pm 27.1 ESE 21 24 1012.9 - - - - - - - - -
22/08:00pm 26.9 ESE 21 24 1012.8 - - - - - - - - -
22/07:30pm 27.0 SE 21 23 1012.7 - - - - - - - - -
22/07:00pm 27.0 ESE 20 23 1012.6 - - - - - - - - -
22/06:30pm 27.0 SE 20 23 1012.3 - - - - - - - - -
22/06:00pm 26.9 SE 20 23 1012.1 - - - - - - - - -
22/05:30pm 26.5 SE 19 21 1011.8 - - - - - - - - -
22/05:00pm 26.2 SE 19 22 1011.7 - - - - - - - - -
22/04:30pm 26.0 SE 21 23 1011.7 - - - - - - - - -
22/04:00pm 26.2 SE 21 24 1011.7 - - - - - - - - -
22/03:30pm 26.3 ESE 21 24 1011.7 - - - - - - - - -
22/03:00pm 26.1 ESE 22 25 1011.9 - - - - - - - - -
22/02:30pm 25.6 SE 25 28 1012.1 - - - - - - - - -
22/02:00pm 26.1 SE 25 29 1012.2 - - - - - - - - -
22/01:30pm 26.4 SE 24 28 1012.4 - - - - - - - - -
22/01:00pm 26.3 SE 25 28 1012.5 - - - - - - - - -
22/12:30pm 26.2 SE 23 27 1012.8 - - - - - - - - -
22/12:00pm 26.7 ESE 22 25 1013.2 - - - - - - - - -
22/11:30am 26.4 SE 20 24 1013.4 - - - - - - - - -
22/11:00am 26.2 SE 22 26 1013.5 - - - - - - - - -
22/10:30am 27.1 ESE 21 25 1013.4 - - - - - - - - -
22/10:00am 26.7 SE 22 25 1013.4 - - - - - - - - -
22/09:30am 26.6 SE 22 24 1013.4 - - - - - - - - -
22/09:00am 26.6 SE 23 27 1013.1 - - - - - - - - -
22/08:30am 26.6 SE 24 28 1012.9 - - - - - - - - -
22/08:00am 26.8 SE 22 25 1012.5 - - - - - - - - -
22/07:30am 26.9 SE 22 26 1012.0 - - - - - - - - -
22/07:00am 26.8 SE 24 26 1011.7 - - - - - - - - -
22/06:30am 26.9 SE 22 25 1011.5 - - - - - - - - -
22/06:00am 26.5 SE 22 27 1011.0 - - - - - - - - -
22/05:40am 26.9 ESE 15 23 1010.9 - - - - - - - - -
22/05:30am 27.6 ESE 10 12 1010.6 - - - - - - - - -
22/05:00am 27.6 E 9 10 1010.1 - - - - - - - - -
22/04:30am 27.6 E 8 9 1009.9 - - - - - - - - -
22/04:00am 27.5 E 6 7 1009.6 - - - - - - - - -
22/03:30am 27.5 E 6 8 1009.5 - - - - - - - - -
22/03:00am 27.6 ENE 6 7 1009.3 - - - - - - - - -
22/02:30am 27.7 NNE 5 6 1009.2 - - - - - - - - -
22/02:00am 27.8 N 6 7 1009.2 - - - - - - - - -
22/01:30am 27.9 NNW 6 8 1009.3 - - - - - - - - -
22/01:00am 27.8 NNW 13 15 1008.7 - - - - - - - - -
22/12:30am 27.8 NNW 13 14 1008.8 - - - - - - - - -
22/12:00am 27.9 NNW 14 16 1008.7 - - - - - - - - -
 
Date/Time
EST
Temp
°C
Wind Pressure Rain since
9am
mm
Weather Cloud Vis
km
Sea
Height
m
Swell
Dir  Spd
kts
Gust
kts
hPa Trend Height
m
Period
s
Dir
21/11:30pm 27.9 NNW 13 16 1008.9 - - - - - - - - -
21/11:00pm 27.9 NNW 14 16 1008.9 - - - - - - - - -
21/10:30pm 28.0 N 12 13 1009.3 - - - - - - - - -
21/10:00pm 28.1 N 13 15 1009.0 - - - - - - - - -
21/09:30pm 28.1 N 13 14 1008.6 - - - - - - - - -
21/09:00pm 28.1 N 12 15 1008.4 - - - - - - - - -
21/08:30pm 28.1 N 14 15 1008.1 - - - - - - - - -
21/08:00pm 28.1 N 15 16 1007.7 - - - - - - - - -
21/07:30pm 28.2 N 15 16 1007.4 - - - - - - - - -
21/07:00pm 28.3 N 15 17 1006.9 - - - - - - - - -
21/06:30pm 28.2 N 17 19 1006.2 - - - - - - - - -
21/06:00pm 28.2 N 17 19 1005.8 - - - - - - - - -
21/05:30pm 28.3 N 18 21 1005.5 - - - - - - - - -
21/05:00pm 28.2 N 18 20 1005.1 - - - - - - - - -
21/04:30pm 28.3 N 17 19 1005.2 - - - - - - - - -
21/04:00pm 28.1 N 17 19 1005.2 - - - - - - - - -
21/03:30pm 28.1 N 17 18 1005.6 - - - - - - - - -
21/03:00pm 28.1 N 15 17 1006.0 - - - - - - - - -
21/02:30pm 28.1 N 15 16 1006.2 - - - - - - - - -
21/02:00pm 28.1 N 14 15 1006.6 - - - - - - - - -
21/01:30pm 28.2 N 13 14 1006.8 - - - - - - - - -
21/01:00pm 27.9 N 11 13 1007.2 - - - - - - - - -
21/12:30pm 27.9 N 12 13 1007.5 - - - - - - - - -
21/12:00pm 27.7 N 11 13 1007.8 - - - - - - - - -
21/11:30am 27.5 N 11 12 1008.3 - - - - - - - - -
21/11:00am 27.4 NNW 11 13 1008.4 - - - - - - - - -
21/10:00am 27.6 NNW 12 13 1009.1 - - - - - - - - -
21/09:30am 27.4 NNW 12 14 1008.9 - - - - - - - - -
21/09:00am 27.4 NW 10 12 1009.2 - - - - - - - - -
21/08:30am 27.1 NW 9 12 1009.0 - - - - - - - - -
21/08:00am 26.8 NW 9 11 1008.8 - - - - - - - - -
21/07:30am 26.5 WNW 8 11 1009.0 - - - - - - - - -
21/07:00am 26.7 NW 11 14 1008.9 - - - - - - - - -

Other Formats:

Comma delimited format used in spreadsheet applications
http://www.bom.gov.au/fwo/IDQ60701/IDQ60701.94378.axf

JavaScript Object Notation format (JSON) in row-major order
http://www.bom.gov.au/fwo/IDQ60701/IDQ60701.94378.json